createdAt,value
2018-04-01T00:02:34.993Z,5.53
2018-04-01T00:07:27.835Z,4.37
2018-04-01T00:12:21.434Z,3.67
2018-04-01T00:17:14.287Z,4.57
2018-04-01T00:22:07.146Z,4.23
2018-04-01T00:27:00.976Z,4.93
2018-04-01T00:31:53.823Z,5.80
2018-04-01T00:36:46.706Z,5.10
2018-04-01T00:41:39.574Z,5.20
2018-04-01T00:46:32.442Z,5.23
2018-04-01T00:51:25.322Z,5.60
2018-04-01T00:56:19.716Z,5.83
2018-04-01T01:01:12.583Z,7.13
2018-04-01T01:06:05.416Z,8.43
2018-04-01T01:10:59.038Z,9.40
2018-04-01T01:15:51.862Z,11.33
2018-04-01T01:20:44.719Z,10.03
2018-04-01T01:25:38.328Z,9.80
2018-04-01T01:30:31.222Z,9.77
2018-04-01T01:35:24.067Z,10.70
2018-04-01T01:40:17.084Z,9.77
2018-04-01T01:45:09.926Z,8.40
2018-04-01T01:50:02.781Z,8.27
2018-04-01T01:54:55.768Z,7.13
2018-04-01T01:59:48.742Z,6.07
2018-04-01T02:04:41.614Z,6.77
2018-04-01T02:09:34.221Z,5.70
2018-04-01T02:14:27.834Z,6.23
2018-04-01T02:19:20.812Z,6.23
2018-04-01T02:24:13.415Z,8.13
2018-04-01T02:29:06.262Z,7.10
2018-04-01T02:33:59.121Z,6.47
2018-04-01T02:38:51.973Z,10.23
2018-04-01T02:43:44.797Z,7.97
2018-04-01T02:48:38.422Z,9.20
2018-04-01T02:53:31.275Z,8.07
2018-04-01T02:58:24.118Z,10.17
2018-04-01T03:03:17.741Z,12.73
2018-04-01T03:08:10.573Z,10.07
2018-04-01T03:13:04.191Z,10.80
2018-04-01T03:17:57.034Z,11.87
2018-04-01T03:22:49.976Z,14.87
2018-04-01T03:27:42.825Z,11.13
2018-04-01T03:32:35.672Z,11.90
2018-04-01T03:37:28.533Z,12.07
2018-04-01T03:42:21.370Z,12.90
2018-04-01T03:47:14.195Z,13.10
2018-04-01T03:52:07.129Z,16.80
2018-04-01T03:56:59.977Z,14.20
2018-04-01T04:01:52.595Z,12.80
2018-04-01T04:06:45.218Z,13.07
2018-04-01T04:11:38.080Z,13.30
2018-04-01T04:16:30.934Z,14.70
2018-04-01T04:21:23.921Z,13.80
2018-04-01T04:26:16.799Z,14.07
2018-04-01T04:31:09.814Z,14.07
2018-04-01T04:36:03.448Z,13.70
2018-04-01T04:40:56.316Z,13.57
2018-04-01T04:45:49.201Z,16.87
2018-04-01T04:50:42.225Z,14.70
2018-04-01T04:55:34.845Z,15.40
2018-04-01T05:00:27.720Z,16.47
2018-04-01T05:05:20.584Z,15.70
2018-04-01T05:10:13.452Z,16.03
2018-04-01T05:15:06.293Z,16.33
2018-04-01T05:19:59.260Z,16.83
2018-04-01T05:24:52.879Z,14.40
2018-04-01T05:29:45.742Z,15.97
2018-04-01T05:34:38.590Z,13.57
2018-04-01T05:39:31.442Z,11.47
2018-04-01T05:44:24.058Z,10.87
2018-04-01T05:49:17.240Z,10.73
2018-04-01T05:54:10.200Z,13.43
2018-04-01T05:59:03.781Z,16.07
2018-04-01T06:03:57.419Z,18.77
2018-04-01T06:08:50.283Z,14.87
2018-04-01T06:13:43.126Z,16.60
2018-04-01T06:18:35.990Z,13.67
2018-04-01T06:23:28.883Z,14.90
2018-04-01T06:28:21.764Z,14.00
2018-04-01T06:33:14.612Z,16.13
2018-04-01T06:38:07.712Z,14.70
2018-04-01T06:43:00.550Z,15.90
2018-04-01T06:47:53.424Z,17.40
2018-04-01T06:52:46.288Z,15.00
2018-04-01T06:57:39.138Z,11.50
2018-04-01T07:02:32.019Z,9.93
2018-04-01T07:07:25.077Z,11.13
2018-04-01T07:12:19.659Z,9.27
2018-04-01T07:17:13.490Z,6.93
2018-04-01T07:22:06.384Z,5.23
2018-04-01T07:26:58.989Z,6.20
2018-04-01T07:31:52.846Z,3.93
2018-04-01T07:36:45.689Z,4.07
2018-04-01T07:41:38.564Z,5.23
2018-04-01T07:46:31.178Z,8.37
2018-04-01T07:51:24.025Z,7.63
2018-04-01T07:56:17.653Z,10.37
2018-04-01T08:01:10.549Z,11.03
2018-04-01T08:06:03.418Z,11.87
2018-04-01T08:10:56.257Z,10.27
2018-04-01T08:15:50.941Z,13.80
2018-04-01T08:20:43.808Z,12.57
2018-04-01T08:25:47.705Z,12.53
2018-04-01T08:30:40.636Z,12.33
2018-04-01T08:35:33.501Z,16.37
2018-04-01T08:40:26.281Z,14.23
2018-04-01T08:45:19.354Z,14.40
2018-04-01T08:50:12.206Z,15.80
2018-04-01T08:55:05.258Z,17.07
2018-04-01T09:55:50.468Z,17.83
2018-04-01T10:01:00.150Z,16.70
2018-04-01T10:05:54.322Z,16.47
2018-04-01T10:10:48.766Z,16.83
2018-04-01T10:15:43.141Z,17.87
2018-04-01T10:20:37.540Z,18.30
2018-04-01T10:25:32.022Z,19.07
2018-04-01T10:30:26.799Z,20.03
2018-04-01T10:35:21.237Z,22.47
2018-04-01T10:40:15.602Z,23.53
2018-04-01T10:45:10.091Z,22.50
2018-04-01T10:50:06.460Z,27.10
2018-04-01T10:54:59.318Z,23.87
2018-04-01T10:59:52.402Z,25.47
2018-04-01T11:04:45.350Z,25.47
2018-04-01T11:09:38.197Z,23.47
2018-04-01T11:14:31.071Z,28.03
2018-04-01T11:19:23.930Z,22.93
2018-04-01T11:24:16.588Z,23.57
2018-04-01T11:29:09.452Z,24.43
2018-04-01T11:34:02.290Z,26.10
2018-04-01T11:38:55.655Z,24.20
2018-04-01T11:43:49.286Z,23.23
2018-04-01T11:48:42.138Z,25.10
2018-04-01T11:53:34.997Z,23.50
2018-04-01T11:58:28.052Z,28.20
2018-04-01T12:03:21.887Z,25.23
2018-04-01T12:08:14.749Z,25.47
2018-04-01T12:13:07.594Z,27.20
2018-04-01T12:18:00.442Z,25.77
2018-04-01T12:22:54.071Z,25.90
2018-04-01T12:27:46.920Z,29.37
2018-04-01T12:32:39.838Z,30.50
2018-04-01T12:37:32.668Z,31.60
2018-04-01T12:42:25.638Z,30.63
2018-04-01T12:47:18.482Z,31.70
2018-04-01T12:52:11.336Z,29.57
2018-04-01T12:57:04.242Z,34.30
2018-04-01T13:01:57.108Z,29.57
2018-04-01T13:06:49.968Z,32.73
2018-04-01T13:11:42.810Z,29.27
2018-04-01T13:16:35.668Z,30.13
2018-04-01T13:21:29.390Z,28.17
2018-04-01T13:26:22.229Z,27.47
2018-04-01T13:31:15.863Z,27.10
2018-04-01T13:36:08.701Z,26.73
2018-04-01T13:41:01.552Z,25.73
2018-04-01T13:45:55.152Z,26.10
2018-04-01T13:50:48.045Z,22.40
2018-04-01T13:55:41.003Z,23.43
2018-04-01T14:00:33.622Z,22.97
2018-04-01T14:05:27.253Z,21.20
2018-04-01T14:10:20.231Z,25.13
2018-04-01T14:15:13.070Z,22.57
2018-04-01T14:20:05.905Z,25.83
2018-04-01T14:24:59.556Z,24.00
2018-04-01T14:29:52.699Z,28.60
2018-04-01T14:34:45.550Z,30.93
2018-04-01T14:39:38.389Z,32.93
2018-04-01T14:44:31.230Z,37.03
2018-04-01T14:49:24.087Z,33.43
2018-04-01T14:54:16.915Z,36.07
2018-04-01T14:59:10.534Z,34.03
2018-04-01T15:04:03.500Z,35.63
2018-04-01T15:08:56.366Z,33.80
2018-04-01T15:13:49.242Z,27.90
2018-04-01T15:18:42.069Z,20.63
2018-04-01T15:23:35.917Z,19.90
2018-04-01T15:28:28.759Z,12.87
2018-04-01T15:33:21.370Z,13.00
2018-04-01T15:38:14.221Z,11.97
2018-04-01T15:43:18.971Z,13.23
2018-04-01T15:48:12.648Z,13.73
2018-04-01T15:53:05.763Z,14.53
2018-04-01T15:57:59.427Z,13.80
2018-04-01T16:02:52.350Z,14.77
2018-04-01T16:07:45.248Z,17.37
2018-04-01T16:12:38.271Z,18.50
2018-04-01T16:17:31.236Z,20.17
2018-04-01T16:22:24.076Z,23.37
2018-04-01T16:27:17.929Z,24.07
2018-04-01T16:32:10.766Z,22.97
2018-04-01T16:37:03.600Z,27.00
2018-04-01T16:41:57.495Z,28.47
2018-04-01T16:46:50.372Z,23.60
2018-04-01T16:51:43.972Z,26.47
2018-04-01T16:56:38.503Z,23.87
2018-04-01T17:01:31.451Z,25.83
2018-04-01T17:06:25.167Z,27.30
2018-04-01T17:11:18.631Z,28.17
2018-04-01T17:16:11.534Z,30.97
2018-04-01T17:21:04.370Z,26.23
2018-04-01T17:25:57.352Z,26.87
2018-04-01T17:30:50.262Z,26.90
2018-04-01T17:35:43.878Z,27.50
2018-04-01T17:40:36.966Z,26.87
2018-04-01T17:45:29.853Z,32.50
2018-04-01T17:50:22.686Z,30.03
2018-04-01T17:55:15.548Z,28.17
2018-04-01T18:00:08.766Z,31.60
2018-04-01T18:05:01.659Z,31.30
2018-04-01T18:09:55.288Z,28.30
2018-04-01T18:14:49.291Z,31.90
2018-04-01T18:19:42.346Z,33.40
2018-04-01T18:24:35.194Z,29.00
2018-04-01T18:29:29.004Z,28.23
2018-04-01T18:34:21.864Z,30.73
2018-04-01T18:39:14.809Z,30.20
2018-04-01T18:44:08.644Z,37.67
2018-04-01T18:49:01.571Z,36.17
2018-04-01T18:53:55.188Z,39.20
2018-04-01T18:58:48.740Z,37.37
2018-04-01T19:03:42.331Z,38.93
2018-04-01T19:08:35.950Z,37.53
2018-04-01T19:13:28.902Z,38.53
2018-04-01T19:18:23.266Z,39.93
2018-04-01T19:23:17.403Z,39.83
2018-04-01T19:28:11.857Z,38.87
2018-04-01T19:33:06.294Z,44.33
2018-04-01T19:38:01.626Z,45.10
2018-04-01T19:42:56.056Z,47.50
2018-04-01T19:47:50.766Z,49.40
2018-04-01T19:52:45.379Z,53.43
2018-04-01T19:57:39.940Z,59.80
2018-04-01T20:02:37.258Z,70.17
2018-04-01T20:07:32.009Z,70.20
2018-04-01T20:12:34.351Z,69.60
2018-04-01T20:17:33.756Z,76.57
2018-04-01T20:22:30.676Z,71.73
2018-04-01T20:27:26.097Z,77.37
2018-04-01T20:32:24.629Z,74.33
2018-04-01T20:37:19.406Z,72.10
2018-04-01T20:42:15.392Z,74.63
2018-04-01T20:47:13.554Z,77.50
2018-04-01T20:52:08.820Z,86.77
2018-04-01T20:57:04.088Z,86.00
2018-04-01T21:02:02.766Z,91.20
2018-04-01T21:06:58.430Z,101.27
2018-04-01T21:11:54.636Z,99.80
2018-04-01T21:16:50.188Z,111.60
2018-04-01T21:21:44.979Z,111.67
2018-04-01T21:26:40.587Z,115.30
2018-04-01T21:31:35.051Z,114.03
2018-04-01T21:36:29.444Z,113.33
2018-04-01T21:41:23.812Z,119.70
2018-04-01T21:46:18.178Z,123.43
2018-04-01T21:51:13.330Z,133.27
2018-04-01T21:56:07.729Z,137.00
2018-04-01T22:01:02.061Z,123.87
2018-04-01T22:05:56.464Z,127.60
2018-04-01T22:10:51.212Z,132.07
2018-04-01T22:15:46.359Z,129.33
2018-04-01T22:20:40.731Z,134.27
2018-04-01T22:25:35.112Z,137.67
2018-04-01T22:30:29.511Z,127.43
2018-04-01T22:35:23.928Z,140.03
2018-04-01T22:40:18.289Z,133.37
2018-04-01T22:45:12.729Z,135.63
2018-04-01T22:50:06.885Z,135.57
2018-04-01T22:55:01.311Z,130.60
2018-04-01T22:59:55.676Z,144.63
2018-04-01T23:04:50.957Z,128.73
2018-04-01T23:09:45.370Z,136.37
2018-04-01T23:14:39.765Z,135.37
2018-04-01T23:19:34.989Z,130.50
2018-04-01T23:24:29.388Z,132.30
2018-04-01T23:29:24.516Z,142.43
2018-04-01T23:34:19.019Z,129.07
2018-04-01T23:39:13.494Z,135.90
2018-04-01T23:44:07.881Z,137.47
2018-04-01T23:49:02.511Z,127.33
2018-04-01T23:53:56.865Z,132.97
2018-04-01T23:58:52.053Z,123.50
